sensor_id;sensor_type;location;lat;lon;timestamp;P1;durP1;ratioP1;P2;durP2;ratioP2
82806;SDS011;72563;44.816;20.484;2024-03-07T00:00:47;28.73;;;13.07;;
82806;SDS011;72563;44.816;20.484;2024-03-07T00:03:12;23.73;;;13.25;;
82806;SDS011;72563;44.816;20.484;2024-03-07T00:05:39;24.55;;;13.32;;
82806;SDS011;72563;44.816;20.484;2024-03-07T00:08:05;28.52;;;13.82;;
82806;SDS011;72563;44.816;20.484;2024-03-07T00:10:31;28.80;;;12.18;;
82806;SDS011;72563;44.816;20.484;2024-03-07T00:12:57;25.98;;;13.57;;
82806;SDS011;72563;44.816;20.484;2024-03-07T00:15:22;24.95;;;12.40;;
82806;SDS011;72563;44.816;20.484;2024-03-07T00:17:48;26.50;;;14.40;;
82806;SDS011;72563;44.816;20.484;2024-03-07T00:20:13;27.38;;;13.85;;
82806;SDS011;72563;44.816;20.484;2024-03-07T00:22:42;25.77;;;13.45;;
82806;SDS011;72563;44.816;20.484;2024-03-07T00:25:08;26.90;;;12.35;;
82806;SDS011;72563;44.816;20.484;2024-03-07T00:27:35;23.63;;;12.23;;
82806;SDS011;72563;44.816;20.484;2024-03-07T00:30:01;25.38;;;12.55;;
82806;SDS011;72563;44.816;20.484;2024-03-07T00:32:27;26.13;;;12.50;;
82806;SDS011;72563;44.816;20.484;2024-03-07T00:34:55;22.85;;;11.63;;
82806;SDS011;72563;44.816;20.484;2024-03-07T00:37:22;24.10;;;12.10;;
82806;SDS011;72563;44.816;20.484;2024-03-07T00:39:49;24.45;;;12.48;;
82806;SDS011;72563;44.816;20.484;2024-03-07T00:42:15;26.42;;;12.80;;
82806;SDS011;72563;44.816;20.484;2024-03-07T00:44:41;27.05;;;13.07;;
82806;SDS011;72563;44.816;20.484;2024-03-07T00:47:06;25.88;;;12.32;;
82806;SDS011;72563;44.816;20.484;2024-03-07T00:49:32;25.15;;;12.50;;
82806;SDS011;72563;44.816;20.484;2024-03-07T00:51:58;25.48;;;12.43;;
82806;SDS011;72563;44.816;20.484;2024-03-07T00:54:25;23.23;;;11.55;;
82806;SDS011;72563;44.816;20.484;2024-03-07T00:56:51;26.40;;;12.27;;
82806;SDS011;72563;44.816;20.484;2024-03-07T00:59:17;25.35;;;13.18;;
82806;SDS011;72563;44.816;20.484;2024-03-07T01:01:43;23.92;;;12.00;;
82806;SDS011;72563;44.816;20.484;2024-03-07T01:04:09;25.33;;;12.80;;
82806;SDS011;72563;44.816;20.484;2024-03-07T01:06:35;23.63;;;12.00;;
82806;SDS011;72563;44.816;20.484;2024-03-07T01:09:05;22.50;;;11.85;;
82806;SDS011;72563;44.816;20.484;2024-03-07T01:11:38;22.15;;;11.48;;
82806;SDS011;72563;44.816;20.484;2024-03-07T01:14:04;24.23;;;12.52;;
82806;SDS011;72563;44.816;20.484;2024-03-07T01:16:31;23.92;;;12.32;;
82806;SDS011;72563;44.816;20.484;2024-03-07T01:18:56;27.02;;;11.95;;
82806;SDS011;72563;44.816;20.484;2024-03-07T01:21:22;26.65;;;12.48;;
82806;SDS011;72563;44.816;20.484;2024-03-07T01:23:49;24.73;;;12.30;;
82806;SDS011;72563;44.816;20.484;2024-03-07T01:26:14;24.83;;;12.73;;
82806;SDS011;72563;44.816;20.484;2024-03-07T01:28:40;26.40;;;13.10;;
82806;SDS011;72563;44.816;20.484;2024-03-07T01:31:06;27.75;;;12.40;;
82806;SDS011;72563;44.816;20.484;2024-03-07T01:33:33;23.17;;;11.98;;
82806;SDS011;72563;44.816;20.484;2024-03-07T01:35:59;25.05;;;11.45;;
82806;SDS011;72563;44.816;20.484;2024-03-07T01:38:25;24.15;;;12.05;;
82806;SDS011;72563;44.816;20.484;2024-03-07T01:40:51;26.83;;;13.95;;
82806;SDS011;72563;44.816;20.484;2024-03-07T01:43:16;25.45;;;13.07;;
82806;SDS011;72563;44.816;20.484;2024-03-07T01:45:42;26.15;;;13.27;;
82806;SDS011;72563;44.816;20.484;2024-03-07T01:48:10;26.23;;;12.45;;
82806;SDS011;72563;44.816;20.484;2024-03-07T01:50:42;27.42;;;13.30;;
82806;SDS011;72563;44.816;20.484;2024-03-07T01:53:09;23.95;;;12.90;;
82806;SDS011;72563;44.816;20.484;2024-03-07T01:55:36;22.98;;;12.38;;
82806;SDS011;72563;44.816;20.484;2024-03-07T01:58:02;25.58;;;11.73;;
82806;SDS011;72563;44.816;20.484;2024-03-07T02:00:32;25.92;;;13.10;;
82806;SDS011;72563;44.816;20.484;2024-03-07T02:02:58;22.63;;;11.45;;
82806;SDS011;72563;44.816;20.484;2024-03-07T02:05:24;24.38;;;12.38;;
82806;SDS011;72563;44.816;20.484;2024-03-07T02:07:50;22.35;;;12.23;;
82806;SDS011;72563;44.816;20.484;2024-03-07T02:10:16;22.85;;;11.82;;
82806;SDS011;72563;44.816;20.484;2024-03-07T02:12:43;28.95;;;13.15;;
82806;SDS011;72563;44.816;20.484;2024-03-07T02:15:08;26.35;;;12.88;;
82806;SDS011;72563;44.816;20.484;2024-03-07T02:17:34;24.05;;;11.77;;
82806;SDS011;72563;44.816;20.484;2024-03-07T02:20:03;23.88;;;12.23;;
82806;SDS011;72563;44.816;20.484;2024-03-07T02:22:33;28.15;;;12.15;;
82806;SDS011;72563;44.816;20.484;2024-03-07T02:24:58;23.98;;;11.98;;
82806;SDS011;72563;44.816;20.484;2024-03-07T02:27:24;25.83;;;12.75;;
82806;SDS011;72563;44.816;20.484;2024-03-07T02:29:49;24.35;;;12.40;;
82806;SDS011;72563;44.816;20.484;2024-03-07T02:32:16;22.17;;;11.00;;
82806;SDS011;72563;44.816;20.484;2024-03-07T02:34:42;22.17;;;11.70;;
82806;SDS011;72563;44.816;20.484;2024-03-07T02:37:08;24.52;;;12.35;;
82806;SDS011;72563;44.816;20.484;2024-03-07T02:39:35;21.90;;;11.38;;
82806;SDS011;72563;44.816;20.484;2024-03-07T02:42:01;24.95;;;12.32;;
82806;SDS011;72563;44.816;20.484;2024-03-07T02:44:27;24.88;;;12.15;;
82806;SDS011;72563;44.816;20.484;2024-03-07T02:46:53;22.73;;;10.73;;
82806;SDS011;72563;44.816;20.484;2024-03-07T02:49:19;23.33;;;12.32;;
82806;SDS011;72563;44.816;20.484;2024-03-07T02:51:46;23.48;;;11.02;;
82806;SDS011;72563;44.816;20.484;2024-03-07T02:54:12;23.67;;;11.32;;
82806;SDS011;72563;44.816;20.484;2024-03-07T02:56:38;21.77;;;11.48;;
82806;SDS011;72563;44.816;20.484;2024-03-07T02:59:03;19.05;;;10.30;;
82806;SDS011;72563;44.816;20.484;2024-03-07T03:01:30;25.00;;;11.48;;
82806;SDS011;72563;44.816;20.484;2024-03-07T03:03:56;25.83;;;11.80;;
82806;SDS011;72563;44.816;20.484;2024-03-07T03:06:21;24.98;;;10.73;;
82806;SDS011;72563;44.816;20.484;2024-03-07T03:08:47;20.98;;;11.45;;
82806;SDS011;72563;44.816;20.484;2024-03-07T03:11:13;21.08;;;10.93;;
82806;SDS011;72563;44.816;20.484;2024-03-07T03:13:41;22.02;;;10.48;;
82806;SDS011;72563;44.816;20.484;2024-03-07T03:16:07;19.55;;;10.80;;
82806;SDS011;72563;44.816;20.484;2024-03-07T03:18:33;21.90;;;10.18;;
82806;SDS011;72563;44.816;20.484;2024-03-07T03:21:00;24.80;;;12.23;;
82806;SDS011;72563;44.816;20.484;2024-03-07T03:23:25;25.13;;;10.93;;
82806;SDS011;72563;44.816;20.484;2024-03-07T03:25:51;22.58;;;10.82;;
82806;SDS011;72563;44.816;20.484;2024-03-07T03:28:17;21.90;;;10.13;;
82806;SDS011;72563;44.816;20.484;2024-03-07T03:30:44;26.75;;;11.05;;
82806;SDS011;72563;44.816;20.484;2024-03-07T03:33:10;22.67;;;10.90;;
82806;SDS011;72563;44.816;20.484;2024-03-07T03:35:39;23.42;;;11.20;;
82806;SDS011;72563;44.816;20.484;2024-03-07T03:38:05;24.08;;;10.63;;
82806;SDS011;72563;44.816;20.484;2024-03-07T03:40:32;24.45;;;11.15;;
82806;SDS011;72563;44.816;20.484;2024-03-07T03:42:58;23.20;;;11.52;;
82806;SDS011;72563;44.816;20.484;2024-03-07T03:45:23;21.73;;;10.70;;
82806;SDS011;72563;44.816;20.484;2024-03-07T03:47:50;21.33;;;9.80;;
82806;SDS011;72563;44.816;20.484;2024-03-07T03:50:16;22.70;;;10.55;;
82806;SDS011;72563;44.816;20.484;2024-03-07T03:52:43;21.42;;;9.95;;
82806;SDS011;72563;44.816;20.484;2024-03-07T03:55:09;23.55;;;10.63;;
82806;SDS011;72563;44.816;20.484;2024-03-07T03:57:35;21.90;;;10.63;;
82806;SDS011;72563;44.816;20.484;2024-03-07T04:00:02;23.33;;;11.40;;
82806;SDS011;72563;44.816;20.484;2024-03-07T04:02:37;20.13;;;9.90;;
82806;SDS011;72563;44.816;20.484;2024-03-07T04:05:13;22.90;;;10.02;;
82806;SDS011;72563;44.816;20.484;2024-03-07T04:07:39;22.90;;;9.88;;
82806;SDS011;72563;44.816;20.484;2024-03-07T04:10:06;21.67;;;10.38;;
82806;SDS011;72563;44.816;20.484;2024-03-07T04:12:36;21.75;;;10.77;;
82806;SDS011;72563;44.816;20.484;2024-03-07T04:15:07;21.83;;;10.07;;
82806;SDS011;72563;44.816;20.484;2024-03-07T04:17:34;22.75;;;10.68;;
82806;SDS011;72563;44.816;20.484;2024-03-07T04:20:00;21.15;;;9.50;;
82806;SDS011;72563;44.816;20.484;2024-03-07T04:22:30;21.75;;;10.27;;
82806;SDS011;72563;44.816;20.484;2024-03-07T04:24:56;20.92;;;9.73;;
82806;SDS011;72563;44.816;20.484;2024-03-07T04:27:21;19.73;;;9.05;;
82806;SDS011;72563;44.816;20.484;2024-03-07T04:29:47;20.55;;;10.45;;
82806;SDS011;72563;44.816;20.484;2024-03-07T04:32:14;19.65;;;10.20;;
82806;SDS011;72563;44.816;20.484;2024-03-07T04:34:40;22.38;;;9.98;;
82806;SDS011;72563;44.816;20.484;2024-03-07T04:37:05;16.75;;;9.15;;
82806;SDS011;72563;44.816;20.484;2024-03-07T04:39:32;21.77;;;9.98;;
82806;SDS011;72563;44.816;20.484;2024-03-07T04:41:58;19.83;;;9.57;;
82806;SDS011;72563;44.816;20.484;2024-03-07T04:44:25;19.05;;;8.80;;
82806;SDS011;72563;44.816;20.484;2024-03-07T04:46:51;16.85;;;8.48;;
82806;SDS011;72563;44.816;20.484;2024-03-07T04:49:24;14.75;;;7.30;;
82806;SDS011;72563;44.816;20.484;2024-03-07T04:51:56;17.02;;;8.10;;
82806;SDS011;72563;44.816;20.484;2024-03-07T04:54:23;15.23;;;7.35;;
82806;SDS011;72563;44.816;20.484;2024-03-07T04:56:50;14.35;;;6.85;;
82806;SDS011;72563;44.816;20.484;2024-03-07T04:59:17;14.75;;;6.35;;
82806;SDS011;72563;44.816;20.484;2024-03-07T05:01:45;15.15;;;6.93;;
82806;SDS011;72563;44.816;20.484;2024-03-07T05:04:14;14.48;;;6.78;;
82806;SDS011;72563;44.816;20.484;2024-03-07T05:06:41;14.02;;;7.05;;
82806;SDS011;72563;44.816;20.484;2024-03-07T05:09:08;13.23;;;6.72;;
82806;SDS011;72563;44.816;20.484;2024-03-07T05:11:38;13.32;;;6.45;;
82806;SDS011;72563;44.816;20.484;2024-03-07T05:14:04;16.02;;;7.10;;
82806;SDS011;72563;44.816;20.484;2024-03-07T05:16:30;13.88;;;7.38;;
82806;SDS011;72563;44.816;20.484;2024-03-07T05:18:59;11.68;;;6.28;;
82806;SDS011;72563;44.816;20.484;2024-03-07T05:21:25;12.23;;;5.95;;
82806;SDS011;72563;44.816;20.484;2024-03-07T05:24:05;11.05;;;6.28;;
82806;SDS011;72563;44.816;20.484;2024-03-07T05:26:33;11.50;;;5.68;;
82806;SDS011;72563;44.816;20.484;2024-03-07T05:29:10;10.07;;;4.45;;
82806;SDS011;72563;44.816;20.484;2024-03-07T05:31:36;10.90;;;5.40;;
82806;SDS011;72563;44.816;20.484;2024-03-07T05:34:03;10.23;;;4.85;;
82806;SDS011;72563;44.816;20.484;2024-03-07T05:36:33;9.35;;;4.70;;
82806;SDS011;72563;44.816;20.484;2024-03-07T05:39:09;9.38;;;4.60;;
82806;SDS011;72563;44.816;20.484;2024-03-07T05:41:36;9.30;;;4.90;;
82806;SDS011;72563;44.816;20.484;2024-03-07T05:44:02;7.90;;;4.07;;
82806;SDS011;72563;44.816;20.484;2024-03-07T05:46:29;8.48;;;4.15;;
82806;SDS011;72563;44.816;20.484;2024-03-07T05:48:55;8.60;;;4.25;;
82806;SDS011;72563;44.816;20.484;2024-03-07T05:51:25;8.82;;;4.30;;
82806;SDS011;72563;44.816;20.484;2024-03-07T05:53:51;8.32;;;4.30;;
82806;SDS011;72563;44.816;20.484;2024-03-07T05:56:18;9.60;;;4.30;;
82806;SDS011;72563;44.816;20.484;2024-03-07T05:58:43;9.85;;;3.70;;
82806;SDS011;72563;44.816;20.484;2024-03-07T06:01:09;8.70;;;4.10;;
82806;SDS011;72563;44.816;20.484;2024-03-07T06:03:35;7.03;;;3.33;;
82806;SDS011;72563;44.816;20.484;2024-03-07T06:06:00;7.32;;;3.38;;
82806;SDS011;72563;44.816;20.484;2024-03-07T06:08:26;7.53;;;3.55;;
82806;SDS011;72563;44.816;20.484;2024-03-07T06:10:52;5.90;;;3.08;;
82806;SDS011;72563;44.816;20.484;2024-03-07T06:13:18;7.78;;;3.72;;
82806;SDS011;72563;44.816;20.484;2024-03-07T06:15:45;6.38;;;2.92;;
82806;SDS011;72563;44.816;20.484;2024-03-07T06:18:11;8.63;;;3.65;;
82806;SDS011;72563;44.816;20.484;2024-03-07T06:20:41;6.70;;;3.35;;
82806;SDS011;72563;44.816;20.484;2024-03-07T06:23:07;7.18;;;2.80;;
82806;SDS011;72563;44.816;20.484;2024-03-07T06:25:34;6.78;;;3.00;;
82806;SDS011;72563;44.816;20.484;2024-03-07T06:28:03;6.80;;;3.42;;
82806;SDS011;72563;44.816;20.484;2024-03-07T06:30:38;6.30;;;2.90;;
82806;SDS011;72563;44.816;20.484;2024-03-07T06:33:08;5.95;;;2.85;;
82806;SDS011;72563;44.816;20.484;2024-03-07T06:35:34;6.88;;;3.20;;
82806;SDS011;72563;44.816;20.484;2024-03-07T06:38:06;6.28;;;2.92;;
82806;SDS011;72563;44.816;20.484;2024-03-07T06:40:34;7.63;;;3.78;;
82806;SDS011;72563;44.816;20.484;2024-03-07T06:43:05;6.63;;;2.80;;
82806;SDS011;72563;44.816;20.484;2024-03-07T06:45:38;7.65;;;3.47;;
82806;SDS011;72563;44.816;20.484;2024-03-07T06:48:07;6.47;;;2.65;;
82806;SDS011;72563;44.816;20.484;2024-03-07T06:50:36;5.32;;;2.30;;
82806;SDS011;72563;44.816;20.484;2024-03-07T06:53:02;5.93;;;2.30;;
82806;SDS011;72563;44.816;20.484;2024-03-07T06:55:29;5.70;;;2.22;;
82806;SDS011;72563;44.816;20.484;2024-03-07T06:57:54;7.40;;;2.90;;
82806;SDS011;72563;44.816;20.484;2024-03-07T07:00:20;6.47;;;2.92;;
82806;SDS011;72563;44.816;20.484;2024-03-07T07:02:46;5.93;;;2.53;;
82806;SDS011;72563;44.816;20.484;2024-03-07T07:05:13;5.97;;;2.47;;
82806;SDS011;72563;44.816;20.484;2024-03-07T07:07:43;6.53;;;2.63;;
82806;SDS011;72563;44.816;20.484;2024-03-07T07:10:09;6.40;;;2.70;;
82806;SDS011;72563;44.816;20.484;2024-03-07T07:12:46;6.22;;;2.50;;
82806;SDS011;72563;44.816;20.484;2024-03-07T07:15:13;5.50;;;2.53;;
82806;SDS011;72563;44.816;20.484;2024-03-07T07:17:44;6.43;;;2.50;;
82806;SDS011;72563;44.816;20.484;2024-03-07T07:20:11;6.45;;;2.58;;
82806;SDS011;72563;44.816;20.484;2024-03-07T07:22:40;5.45;;;2.28;;
82806;SDS011;72563;44.816;20.484;2024-03-07T07:25:07;6.47;;;2.50;;
82806;SDS011;72563;44.816;20.484;2024-03-07T07:27:42;8.70;;;2.83;;
82806;SDS011;72563;44.816;20.484;2024-03-07T07:30:11;5.80;;;2.30;;
82806;SDS011;72563;44.816;20.484;2024-03-07T07:32:38;7.15;;;2.80;;
82806;SDS011;72563;44.816;20.484;2024-03-07T07:35:04;4.78;;;2.13;;
82806;SDS011;72563;44.816;20.484;2024-03-07T07:37:35;5.82;;;2.55;;
82806;SDS011;72563;44.816;20.484;2024-03-07T07:40:02;6.85;;;2.42;;
82806;SDS011;72563;44.816;20.484;2024-03-07T07:42:28;6.18;;;2.25;;
82806;SDS011;72563;44.816;20.484;2024-03-07T07:44:54;5.60;;;2.60;;
82806;SDS011;72563;44.816;20.484;2024-03-07T07:47:20;5.32;;;1.83;;
82806;SDS011;72563;44.816;20.484;2024-03-07T07:49:45;6.10;;;2.30;;
82806;SDS011;72563;44.816;20.484;2024-03-07T07:52:11;4.70;;;2.33;;
82806;SDS011;72563;44.816;20.484;2024-03-07T07:54:40;6.18;;;2.40;;
82806;SDS011;72563;44.816;20.484;2024-03-07T07:57:07;5.47;;;1.95;;
82806;SDS011;72563;44.816;20.484;2024-03-07T07:59:33;5.78;;;2.53;;
82806;SDS011;72563;44.816;20.484;2024-03-07T08:01:58;6.60;;;2.58;;
82806;SDS011;72563;44.816;20.484;2024-03-07T08:04:25;5.95;;;2.20;;
82806;SDS011;72563;44.816;20.484;2024-03-07T08:06:50;6.47;;;2.13;;
82806;SDS011;72563;44.816;20.484;2024-03-07T08:09:16;6.07;;;2.80;;
82806;SDS011;72563;44.816;20.484;2024-03-07T08:11:42;5.75;;;2.45;;
82806;SDS011;72563;44.816;20.484;2024-03-07T08:14:08;6.18;;;2.25;;
82806;SDS011;72563;44.816;20.484;2024-03-07T08:16:33;9.05;;;2.97;;
82806;SDS011;72563;44.816;20.484;2024-03-07T08:18:59;6.03;;;2.53;;
82806;SDS011;72563;44.816;20.484;2024-03-07T08:21:25;6.20;;;2.50;;
82806;SDS011;72563;44.816;20.484;2024-03-07T08:23:51;7.13;;;2.92;;
82806;SDS011;72563;44.816;20.484;2024-03-07T08:26:16;7.53;;;3.10;;
82806;SDS011;72563;44.816;20.484;2024-03-07T08:28:42;6.97;;;2.95;;
82806;SDS011;72563;44.816;20.484;2024-03-07T08:31:08;8.00;;;2.90;;
82806;SDS011;72563;44.816;20.484;2024-03-07T08:33:34;6.05;;;2.83;;
82806;SDS011;72563;44.816;20.484;2024-03-07T08:36:00;9.02;;;3.53;;
82806;SDS011;72563;44.816;20.484;2024-03-07T08:38:26;6.50;;;2.35;;
82806;SDS011;72563;44.816;20.484;2024-03-07T08:40:52;5.93;;;2.45;;
82806;SDS011;72563;44.816;20.484;2024-03-07T08:43:18;6.35;;;2.50;;
82806;SDS011;72563;44.816;20.484;2024-03-07T08:45:43;6.78;;;2.60;;
82806;SDS011;72563;44.816;20.484;2024-03-07T08:48:10;7.75;;;3.17;;
82806;SDS011;72563;44.816;20.484;2024-03-07T08:50:38;6.82;;;2.97;;
82806;SDS011;72563;44.816;20.484;2024-03-07T08:53:04;6.72;;;2.97;;
82806;SDS011;72563;44.816;20.484;2024-03-07T08:55:30;7.88;;;3.22;;
82806;SDS011;72563;44.816;20.484;2024-03-07T08:58:01;6.65;;;3.13;;
82806;SDS011;72563;44.816;20.484;2024-03-07T09:00:26;7.00;;;2.88;;
82806;SDS011;72563;44.816;20.484;2024-03-07T09:02:55;8.15;;;3.72;;
82806;SDS011;72563;44.816;20.484;2024-03-07T09:05:28;9.05;;;3.75;;
82806;SDS011;72563;44.816;20.484;2024-03-07T09:07:58;8.25;;;4.10;;
82806;SDS011;72563;44.816;20.484;2024-03-07T09:10:25;7.93;;;3.65;;
82806;SDS011;72563;44.816;20.484;2024-03-07T09:12:51;8.85;;;4.28;;
82806;SDS011;72563;44.816;20.484;2024-03-07T09:15:19;8.30;;;3.60;;
82806;SDS011;72563;44.816;20.484;2024-03-07T09:17:46;8.23;;;3.65;;
82806;SDS011;72563;44.816;20.484;2024-03-07T09:20:12;9.25;;;4.00;;
82806;SDS011;72563;44.816;20.484;2024-03-07T09:22:41;7.80;;;3.95;;
82806;SDS011;72563;44.816;20.484;2024-03-07T09:25:08;8.93;;;4.10;;
82806;SDS011;72563;44.816;20.484;2024-03-07T09:27:35;11.05;;;3.97;;
82806;SDS011;72563;44.816;20.484;2024-03-07T09:30:03;9.23;;;3.97;;
82806;SDS011;72563;44.816;20.484;2024-03-07T09:32:29;8.82;;;4.00;;
82806;SDS011;72563;44.816;20.484;2024-03-07T09:34:58;8.80;;;4.30;;
82806;SDS011;72563;44.816;20.484;2024-03-07T09:37:25;8.93;;;3.97;;
82806;SDS011;72563;44.816;20.484;2024-03-07T09:39:51;9.90;;;3.53;;
82806;SDS011;72563;44.816;20.484;2024-03-07T09:42:17;7.18;;;3.35;;
82806;SDS011;72563;44.816;20.484;2024-03-07T09:44:43;5.95;;;3.15;;
82806;SDS011;72563;44.816;20.484;2024-03-07T09:47:12;6.30;;;3.13;;
82806;SDS011;72563;44.816;20.484;2024-03-07T09:49:39;6.60;;;2.88;;
82806;SDS011;72563;44.816;20.484;2024-03-07T09:52:06;7.50;;;3.60;;
82806;SDS011;72563;44.816;20.484;2024-03-07T09:54:39;8.43;;;3.90;;
82806;SDS011;72563;44.816;20.484;2024-03-07T09:57:09;6.38;;;3.30;;
82806;SDS011;72563;44.816;20.484;2024-03-07T09:59:36;6.63;;;3.10;;
82806;SDS011;72563;44.816;20.484;2024-03-07T10:02:06;6.10;;;3.40;;
82806;SDS011;72563;44.816;20.484;2024-03-07T10:04:40;6.03;;;3.03;;
82806;SDS011;72563;44.816;20.484;2024-03-07T10:07:14;6.97;;;4.30;;
82806;SDS011;72563;44.816;20.484;2024-03-07T10:09:41;6.18;;;3.40;;
82806;SDS011;72563;44.816;20.484;2024-03-07T10:12:08;7.90;;;3.50;;
82806;SDS011;72563;44.816;20.484;2024-03-07T10:14:50;7.45;;;3.72;;
82806;SDS011;72563;44.816;20.484;2024-03-07T10:17:18;8.02;;;3.55;;
82806;SDS011;72563;44.816;20.484;2024-03-07T10:19:47;7.88;;;3.50;;
82806;SDS011;72563;44.816;20.484;2024-03-07T10:22:18;8.35;;;4.10;;
82806;SDS011;72563;44.816;20.484;2024-03-07T10:24:53;7.30;;;3.35;;
82806;SDS011;72563;44.816;20.484;2024-03-07T10:27:20;7.55;;;4.00;;
82806;SDS011;72563;44.816;20.484;2024-03-07T10:29:46;7.80;;;3.88;;
82806;SDS011;72563;44.816;20.484;2024-03-07T10:32:18;6.70;;;3.33;;
82806;SDS011;72563;44.816;20.484;2024-03-07T10:34:44;7.45;;;3.50;;
82806;SDS011;72563;44.816;20.484;2024-03-07T10:37:12;7.65;;;3.70;;
82806;SDS011;72563;44.816;20.484;2024-03-07T10:39:42;7.32;;;3.33;;
82806;SDS011;72563;44.816;20.484;2024-03-07T10:42:09;7.50;;;3.58;;
82806;SDS011;72563;44.816;20.484;2024-03-07T10:44:41;7.78;;;3.63;;
82806;SDS011;72563;44.816;20.484;2024-03-07T10:47:18;7.43;;;3.35;;
82806;SDS011;72563;44.816;20.484;2024-03-07T10:49:59;6.70;;;3.47;;
82806;SDS011;72563;44.816;20.484;2024-03-07T10:55:34;7.60;;;3.90;;
82806;SDS011;72563;44.816;20.484;2024-03-07T11:00:49;7.55;;;3.15;;
82806;SDS011;72563;44.816;20.484;2024-03-07T11:03:17;8.27;;;3.50;;
82806;SDS011;72563;44.816;20.484;2024-03-07T11:05:45;8.20;;;3.65;;
82806;SDS011;72563;44.816;20.484;2024-03-07T11:08:11;6.10;;;3.17;;
82806;SDS011;72563;44.816;20.484;2024-03-07T11:10:38;6.20;;;3.15;;
82806;SDS011;72563;44.816;20.484;2024-03-07T11:13:08;7.78;;;4.85;;
82806;SDS011;72563;44.816;20.484;2024-03-07T11:15:37;6.85;;;3.55;;
82806;SDS011;72563;44.816;20.484;2024-03-07T11:18:09;7.43;;;3.65;;
82806;SDS011;72563;44.816;20.484;2024-03-07T11:20:38;7.78;;;4.38;;
82806;SDS011;72563;44.816;20.484;2024-03-07T11:30:45;8.77;;;4.43;;
82806;SDS011;72563;44.816;20.484;2024-03-07T11:33:11;8.05;;;4.00;;
82806;SDS011;72563;44.816;20.484;2024-03-07T11:35:39;8.30;;;4.70;;
82806;SDS011;72563;44.816;20.484;2024-03-07T11:38:08;8.25;;;3.90;;
82806;SDS011;72563;44.816;20.484;2024-03-07T11:43:02;10.35;;;5.25;;
82806;SDS011;72563;44.816;20.484;2024-03-07T11:45:31;9.20;;;4.47;;
82806;SDS011;72563;44.816;20.484;2024-03-07T11:48:09;9.73;;;5.18;;
82806;SDS011;72563;44.816;20.484;2024-03-07T11:50:36;10.18;;;4.97;;
82806;SDS011;72563;44.816;20.484;2024-03-07T11:53:03;9.65;;;4.68;;
82806;SDS011;72563;44.816;20.484;2024-03-07T11:55:36;13.35;;;5.40;;
82806;SDS011;72563;44.816;20.484;2024-03-07T11:58:19;9.93;;;4.72;;
82806;SDS011;72563;44.816;20.484;2024-03-07T12:00:48;9.52;;;4.80;;
82806;SDS011;72563;44.816;20.484;2024-03-07T12:03:17;10.75;;;4.97;;
82806;SDS011;72563;44.816;20.484;2024-03-07T12:05:49;11.38;;;5.38;;
82806;SDS011;72563;44.816;20.484;2024-03-07T12:08:16;9.38;;;4.65;;
82806;SDS011;72563;44.816;20.484;2024-03-07T12:10:42;9.15;;;4.40;;
82806;SDS011;72563;44.816;20.484;2024-03-07T12:13:09;10.90;;;5.38;;
82806;SDS011;72563;44.816;20.484;2024-03-07T12:15:44;12.35;;;6.10;;
82806;SDS011;72563;44.816;20.484;2024-03-07T12:18:10;10.75;;;5.03;;
82806;SDS011;72563;44.816;20.484;2024-03-07T12:20:40;10.10;;;5.18;;
82806;SDS011;72563;44.816;20.484;2024-03-07T12:23:07;9.70;;;4.90;;
82806;SDS011;72563;44.816;20.484;2024-03-07T12:25:38;8.95;;;4.57;;
82806;SDS011;72563;44.816;20.484;2024-03-07T12:28:08;13.02;;;5.68;;
82806;SDS011;72563;44.816;20.484;2024-03-07T12:33:12;11.52;;;5.20;;
82806;SDS011;72563;44.816;20.484;2024-03-07T12:35:48;9.02;;;4.82;;
82806;SDS011;72563;44.816;20.484;2024-03-07T12:38:17;9.55;;;5.00;;
82806;SDS011;72563;44.816;20.484;2024-03-07T12:40:43;10.75;;;5.30;;
82806;SDS011;72563;44.816;20.484;2024-03-07T12:43:18;10.93;;;5.45;;
82806;SDS011;72563;44.816;20.484;2024-03-07T12:45:51;9.70;;;4.80;;
82806;SDS011;72563;44.816;20.484;2024-03-07T12:48:17;10.82;;;5.05;;
82806;SDS011;72563;44.816;20.484;2024-03-07T12:50:48;11.02;;;5.30;;
82806;SDS011;72563;44.816;20.484;2024-03-07T12:53:20;10.13;;;5.47;;
82806;SDS011;72563;44.816;20.484;2024-03-07T12:55:48;9.77;;;5.22;;
82806;SDS011;72563;44.816;20.484;2024-03-07T12:58:15;10.93;;;5.00;;
82806;SDS011;72563;44.816;20.484;2024-03-07T13:00:42;9.75;;;4.80;;
82806;SDS011;72563;44.816;20.484;2024-03-07T13:03:08;10.23;;;4.85;;
82806;SDS011;72563;44.816;20.484;2024-03-07T13:05:36;9.32;;;4.82;;
82806;SDS011;72563;44.816;20.484;2024-03-07T13:08:09;11.80;;;5.28;;
82806;SDS011;72563;44.816;20.484;2024-03-07T13:10:44;10.90;;;5.00;;
82806;SDS011;72563;44.816;20.484;2024-03-07T13:13:10;10.60;;;5.35;;
82806;SDS011;72563;44.816;20.484;2024-03-07T13:15:39;10.40;;;5.45;;
82806;SDS011;72563;44.816;20.484;2024-03-07T13:18:07;11.10;;;4.72;;
82806;SDS011;72563;44.816;20.484;2024-03-07T13:20:34;9.13;;;4.80;;
82806;SDS011;72563;44.816;20.484;2024-03-07T13:23:01;10.05;;;4.95;;
82806;SDS011;72563;44.816;20.484;2024-03-07T13:25:28;12.38;;;5.65;;
82806;SDS011;72563;44.816;20.484;2024-03-07T13:30:24;10.95;;;5.07;;
82806;SDS011;72563;44.816;20.484;2024-03-07T13:32:55;12.13;;;5.43;;
82806;SDS011;72563;44.816;20.484;2024-03-07T13:35:25;9.90;;;5.13;;
82806;SDS011;72563;44.816;20.484;2024-03-07T13:37:52;9.90;;;5.00;;
82806;SDS011;72563;44.816;20.484;2024-03-07T13:40:23;9.20;;;4.53;;
82806;SDS011;72563;44.816;20.484;2024-03-07T13:42:57;8.65;;;4.30;;
82806;SDS011;72563;44.816;20.484;2024-03-07T13:45:26;11.02;;;3.83;;
82806;SDS011;72563;44.816;20.484;2024-03-07T13:47:56;8.18;;;3.95;;
82806;SDS011;72563;44.816;20.484;2024-03-07T13:50:24;8.57;;;4.43;;
82806;SDS011;72563;44.816;20.484;2024-03-07T13:52:53;9.50;;;4.00;;
82806;SDS011;72563;44.816;20.484;2024-03-07T14:18:58;8.35;;;4.53;;
82806;SDS011;72563;44.816;20.484;2024-03-07T14:32:38;10.52;;;5.15;;
82806;SDS011;72563;44.816;20.484;2024-03-07T14:35:23;10.90;;;5.32;;
82806;SDS011;72563;44.816;20.484;2024-03-07T14:40:38;11.25;;;5.63;;
82806;SDS011;72563;44.816;20.484;2024-03-07T14:43:05;11.35;;;4.90;;
82806;SDS011;72563;44.816;20.484;2024-03-07T14:45:39;10.38;;;5.38;;
82806;SDS011;72563;44.816;20.484;2024-03-07T14:50:35;11.40;;;5.10;;
82806;SDS011;72563;44.816;20.484;2024-03-07T14:55:30;9.52;;;4.25;;
82806;SDS011;72563;44.816;20.484;2024-03-07T14:57:57;10.55;;;5.40;;
82806;SDS011;72563;44.816;20.484;2024-03-07T15:00:23;12.52;;;5.78;;
82806;SDS011;72563;44.816;20.484;2024-03-07T15:02:53;10.65;;;4.68;;
82806;SDS011;72563;44.816;20.484;2024-03-07T15:05:24;12.48;;;6.43;;
82806;SDS011;72563;44.816;20.484;2024-03-07T15:07:53;10.00;;;5.30;;
82806;SDS011;72563;44.816;20.484;2024-03-07T15:10:21;11.90;;;5.53;;
82806;SDS011;72563;44.816;20.484;2024-03-07T15:12:52;10.90;;;5.10;;
82806;SDS011;72563;44.816;20.484;2024-03-07T15:15:19;12.50;;;5.97;;
82806;SDS011;72563;44.816;20.484;2024-03-07T15:17:58;10.57;;;5.32;;
82806;SDS011;72563;44.816;20.484;2024-03-07T15:20:26;11.07;;;5.70;;
82806;SDS011;72563;44.816;20.484;2024-03-07T15:25:23;11.50;;;6.03;;
82806;SDS011;72563;44.816;20.484;2024-03-07T15:27:49;13.77;;;6.88;;
82806;SDS011;72563;44.816;20.484;2024-03-07T15:30:16;12.15;;;5.30;;
82806;SDS011;72563;44.816;20.484;2024-03-07T15:32:43;11.88;;;5.88;;